createdAt,value
2022-09-20T00:01:34.061Z,1.70
2022-09-20T00:04:05.405Z,1.87
2022-09-20T00:06:34.431Z,2.10
2022-09-20T00:09:02.590Z,2.43
2022-09-20T00:11:32.046Z,2.00
2022-09-20T00:14:00.798Z,2.10
2022-09-20T00:16:31.498Z,1.93
2022-09-20T00:19:00.157Z,2.30
2022-09-20T00:21:29.556Z,2.37
2022-09-20T00:23:57.693Z,1.80
2022-09-20T00:26:28.463Z,2.10
2022-09-20T00:28:57.165Z,1.70
2022-09-20T00:31:23.935Z,2.23
2022-09-20T00:34:13.356Z,2.33
2022-09-20T00:36:40.158Z,1.80
2022-09-20T00:39:07.217Z,2.00
2022-09-20T00:41:34.080Z,2.10
2022-09-20T00:44:01.829Z,2.50
2022-09-20T00:46:37.252Z,2.53
2022-09-20T00:49:15.164Z,2.50
2022-09-20T00:51:46.242Z,2.23
2022-09-20T00:54:20.068Z,2.23
2022-09-20T00:56:48.412Z,1.87
2022-09-20T00:59:22.744Z,1.93
2022-09-20T01:02:05.433Z,2.30
2022-09-20T01:04:35.028Z,1.57
2022-09-20T01:07:04.604Z,1.60
2022-09-20T01:09:31.354Z,1.87
2022-09-20T01:12:02.355Z,1.57
2022-09-20T01:14:29.305Z,1.70
2022-09-20T01:16:59.412Z,1.83
2022-09-20T01:19:55.902Z,2.20
2022-09-20T01:22:25.524Z,1.37
2022-09-20T01:25:07.282Z,1.80
2022-09-20T01:27:44.692Z,2.20
2022-09-20T01:30:21.674Z,1.90
2022-09-20T01:33:00.490Z,1.90
2022-09-20T01:35:28.767Z,3.10
2022-09-20T01:38:16.151Z,2.23
2022-09-20T01:41:02.152Z,2.43
2022-09-20T01:43:37.824Z,2.77
2022-09-20T01:46:31.298Z,2.13
2022-09-20T01:49:21.860Z,2.07
2022-09-20T01:52:07.167Z,2.10
2022-09-20T01:55:00.152Z,2.20
2022-09-20T01:57:48.062Z,2.07
2022-09-20T02:00:21.742Z,1.83
2022-09-20T02:03:32.907Z,2.30
2022-09-20T02:06:02.215Z,2.07
2022-09-20T02:08:56.382Z,1.53
2022-09-20T02:11:39.030Z,1.70
2022-09-20T02:14:17.939Z,1.90
2022-09-20T02:16:51.095Z,1.57
2022-09-20T02:19:42.019Z,1.30
2022-09-20T02:22:31.774Z,2.10
2022-09-20T02:25:23.087Z,1.93
2022-09-20T02:28:21.030Z,1.60
2022-09-20T02:31:02.870Z,2.03
2022-09-20T02:34:11.297Z,1.40
2022-09-20T02:36:46.507Z,2.20
2022-09-20T02:39:58.225Z,1.30
2022-09-20T02:42:43.446Z,2.10
2022-09-20T02:45:25.966Z,1.63
2022-09-20T02:47:57.986Z,1.07
2022-09-20T02:51:02.640Z,1.03
2022-09-20T02:53:48.624Z,1.30
2022-09-20T02:56:52.775Z,1.60
2022-09-20T02:59:19.446Z,1.87
2022-09-20T03:02:18.409Z,1.43
2022-09-20T03:04:52.133Z,1.70
2022-09-20T03:07:35.363Z,1.60
2022-09-20T03:10:13.976Z,1.53
2022-09-20T03:13:06.573Z,1.67
2022-09-20T03:15:54.825Z,2.33
2022-09-20T03:18:53.876Z,1.57
2022-09-20T03:21:39.465Z,1.60
2022-09-20T03:24:28.875Z,2.03
2022-09-20T03:27:15.420Z,1.80
2022-09-20T03:30:06.909Z,2.03
2022-09-20T03:33:18.751Z,1.60
2022-09-20T03:36:03.403Z,2.10
2022-09-20T03:38:50.131Z,1.20
2022-09-20T03:41:38.736Z,1.97
2022-09-20T03:44:09.026Z,2.00
2022-09-20T03:46:45.639Z,1.40
2022-09-20T03:49:51.093Z,1.40
2022-09-20T03:52:35.926Z,1.70
2022-09-20T03:55:21.035Z,2.50
2022-09-20T03:58:15.424Z,2.00
2022-09-20T04:01:01.009Z,2.37
2022-09-20T04:03:33.988Z,2.20
2022-09-20T04:06:11.240Z,2.30
2022-09-20T04:08:56.758Z,2.47
2022-09-20T04:11:46.163Z,2.93
2022-09-20T04:14:34.527Z,2.50
2022-09-20T04:17:25.021Z,2.70
2022-09-20T04:19:55.731Z,3.27
2022-09-20T04:22:25.921Z,2.87
2022-09-20T04:25:13.377Z,3.07
2022-09-20T04:27:42.988Z,2.73
2022-09-20T04:30:32.029Z,2.50
2022-09-20T04:33:20.773Z,2.50
2022-09-20T04:36:28.100Z,3.30
2022-09-20T04:39:06.750Z,3.73
2022-09-20T04:41:54.434Z,3.27
2022-09-20T04:44:50.514Z,3.07
2022-09-20T04:47:42.387Z,3.40
2022-09-20T04:50:21.043Z,3.10
2022-09-20T04:53:29.451Z,3.13
2022-09-20T04:56:22.754Z,3.27
2022-09-20T04:59:01.023Z,3.00
2022-09-20T05:02:10.594Z,2.53
2022-09-20T05:05:15.599Z,2.60
2022-09-20T05:08:09.983Z,3.20
2022-09-20T05:10:36.793Z,3.53
2022-09-20T05:13:09.657Z,3.30
2022-09-20T05:15:55.029Z,3.37
2022-09-20T05:18:43.204Z,3.37
2022-09-20T05:21:19.711Z,2.73
2022-09-20T05:24:09.564Z,2.80
2022-09-20T05:27:15.614Z,3.10
2022-09-20T05:29:51.012Z,3.10
2022-09-20T05:32:32.646Z,3.10
2022-09-20T05:35:14.012Z,3.23
2022-09-20T05:37:56.036Z,2.77
2022-09-20T05:40:36.762Z,2.87
2022-09-20T05:43:11.933Z,2.60
2022-09-20T05:45:39.741Z,2.70
2022-09-20T05:48:40.364Z,2.20
2022-09-20T05:51:28.738Z,2.27
2022-09-20T05:54:05.264Z,2.20
2022-09-20T05:57:05.943Z,2.67
2022-09-20T05:59:51.654Z,2.50
2022-09-20T06:02:57.199Z,2.43
2022-09-20T06:05:24.454Z,2.67
2022-09-20T06:07:53.972Z,2.87
2022-09-20T06:10:35.489Z,2.73
2022-09-20T06:13:26.572Z,2.63
2022-09-20T06:16:04.695Z,2.30
2022-09-20T06:18:58.689Z,3.03
2022-09-20T06:21:46.380Z,2.73
2022-09-20T06:24:24.103Z,2.57
2022-09-20T06:26:55.317Z,2.57
2022-09-20T06:29:30.435Z,2.03
2022-09-20T06:31:57.535Z,2.17
2022-09-20T06:34:24.742Z,2.87
2022-09-20T06:37:27.213Z,2.63
2022-09-20T06:40:43.350Z,2.63
2022-09-20T06:43:14.472Z,2.50
2022-09-20T06:45:42.876Z,2.50
2022-09-20T06:48:11.750Z,2.90
2022-09-20T06:50:38.871Z,2.10
2022-09-20T06:53:06.624Z,2.40
2022-09-20T06:55:41.388Z,2.50
2022-09-20T06:58:09.815Z,3.57
2022-09-20T07:00:37.205Z,2.63
2022-09-20T07:03:04.048Z,2.60
2022-09-20T07:05:30.870Z,2.50
2022-09-20T07:07:58.759Z,2.10
2022-09-20T07:10:29.316Z,2.80
2022-09-20T07:13:00.885Z,2.90
2022-09-20T07:15:34.947Z,2.40
2022-09-20T07:18:01.753Z,2.50
2022-09-20T07:20:28.597Z,2.87
2022-09-20T07:22:55.469Z,2.87
2022-09-20T07:25:22.917Z,2.37
2022-09-20T07:27:50.865Z,2.70
2022-09-20T07:30:19.309Z,2.70
2022-09-20T07:32:46.107Z,3.30
2022-09-20T07:35:13.517Z,3.63
2022-09-20T07:37:41.426Z,3.10
2022-09-20T07:40:11.225Z,2.60
2022-09-20T07:42:38.161Z,5.53
2022-09-20T07:45:05.464Z,3.07
2022-09-20T07:47:33.423Z,3.00
2022-09-20T07:50:00.239Z,2.40
2022-09-20T07:52:27.585Z,2.80
2022-09-20T07:54:54.386Z,2.57
2022-09-20T07:57:21.246Z,2.70
2022-09-20T07:59:47.970Z,2.83
2022-09-20T08:02:16.673Z,2.50
2022-09-20T08:04:44.010Z,2.60
2022-09-20T08:07:12.506Z,2.87
2022-09-20T08:09:39.396Z,2.60
2022-09-20T08:14:55.503Z,2.60
2022-09-20T08:17:22.384Z,2.60
2022-09-20T08:19:50.389Z,3.03
2022-09-20T08:22:17.745Z,2.63
2022-09-20T08:24:44.568Z,2.83
2022-09-20T08:27:12.121Z,2.87
2022-09-20T08:29:39.013Z,2.77
2022-09-20T08:32:06.168Z,2.83
2022-09-20T08:34:33.005Z,2.60
2022-09-20T08:36:59.770Z,3.00
2022-09-20T08:42:28.633Z,2.57
2022-09-20T08:45:21.823Z,2.47
2022-09-20T08:47:58.799Z,2.20
2022-09-20T08:50:26.103Z,3.17
2022-09-20T08:53:00.287Z,2.37
2022-09-20T08:55:36.530Z,2.50
2022-09-20T08:58:08.223Z,2.80
2022-09-20T09:00:38.272Z,2.73
2022-09-20T09:03:10.786Z,2.40
2022-09-20T09:05:46.748Z,2.27
2022-09-20T09:08:27.134Z,2.33
2022-09-20T09:10:59.621Z,2.40
2022-09-20T09:13:51.381Z,2.20
2022-09-20T09:16:25.717Z,3.63
2022-09-20T09:18:55.334Z,1.53
2022-09-20T09:21:30.488Z,1.30
2022-09-20T09:24:06.623Z,1.60
2022-09-20T09:26:43.332Z,1.90
2022-09-20T09:29:18.140Z,1.80
2022-09-20T09:31:46.661Z,1.40
2022-09-20T09:34:31.008Z,1.40
2022-09-20T09:36:59.188Z,1.93
2022-09-20T09:39:32.016Z,1.93
2022-09-20T09:42:01.231Z,1.47
2022-09-20T09:44:33.774Z,1.80
2022-09-20T09:47:00.822Z,1.10
2022-09-20T09:49:36.220Z,1.47
2022-09-20T09:52:12.989Z,1.53
2022-09-20T09:54:47.025Z,1.70
2022-09-20T09:57:20.722Z,1.23
2022-09-20T10:00:19.450Z,1.83
2022-09-20T10:03:13.343Z,1.40
2022-09-20T10:05:52.517Z,1.40
2022-09-20T10:08:43.604Z,1.80
2022-09-20T10:11:25.445Z,1.77
2022-09-20T10:14:29.696Z,1.60
2022-09-20T10:17:22.508Z,0.97
2022-09-20T10:20:02.224Z,1.60
2022-09-20T10:22:41.735Z,1.40
2022-09-20T10:25:19.163Z,1.50
2022-09-20T10:27:54.458Z,1.10
2022-09-20T10:30:31.971Z,1.30
2022-09-20T10:33:28.686Z,1.30
2022-09-20T10:36:08.508Z,1.03
2022-09-20T10:38:58.260Z,1.23
2022-09-20T10:42:02.390Z,1.57
2022-09-20T10:45:01.961Z,1.37
2022-09-20T10:47:38.762Z,1.83
2022-09-20T10:50:38.407Z,1.60
2022-09-20T10:53:53.394Z,1.73
2022-09-20T10:56:28.195Z,1.40
2022-09-20T10:59:20.540Z,1.90
2022-09-20T11:02:15.297Z,1.43
2022-09-20T11:05:00.322Z,1.47
2022-09-20T11:07:43.325Z,1.40
2022-09-20T11:10:43.152Z,1.13
2022-09-20T11:13:20.214Z,1.37
2022-09-20T11:15:54.500Z,1.87
2022-09-20T11:18:43.124Z,1.80
2022-09-20T11:21:22.296Z,1.50
2022-09-20T11:24:27.209Z,1.30
2022-09-20T11:27:14.348Z,1.20
2022-09-20T11:30:02.032Z,1.00
2022-09-20T11:32:35.341Z,1.27
2022-09-20T11:35:14.837Z,1.00
2022-09-20T11:38:04.614Z,1.10
2022-09-20T11:40:41.160Z,1.10
2022-09-20T11:43:09.650Z,0.83
2022-09-20T11:45:39.198Z,0.90
2022-09-20T11:48:21.873Z,1.00
2022-09-20T11:51:09.914Z,0.93
2022-09-20T11:53:48.706Z,0.80
2022-09-20T11:56:25.691Z,1.20
2022-09-20T11:59:01.438Z,1.50
2022-09-20T12:01:34.721Z,0.70
2022-09-20T12:04:33.615Z,1.60
2022-09-20T12:07:20.507Z,1.80
2022-09-20T12:09:58.201Z,1.73
2022-09-20T12:12:30.742Z,2.40
2022-09-20T12:15:00.709Z,1.30
2022-09-20T12:17:46.146Z,0.90
2022-09-20T12:20:35.061Z,0.60
2022-09-20T12:23:45.359Z,0.97
2022-09-20T12:26:21.084Z,0.70
2022-09-20T12:28:50.483Z,0.80
2022-09-20T12:31:20.274Z,0.70
2022-09-20T12:34:11.605Z,0.70
2022-09-20T12:37:05.714Z,0.83
2022-09-20T12:39:36.661Z,0.93
2022-09-20T12:42:30.706Z,0.70
2022-09-20T12:45:15.884Z,0.60
2022-09-20T12:47:53.473Z,1.07
2022-09-20T12:50:41.387Z,1.10
2022-09-20T12:53:17.190Z,1.17
2022-09-20T12:55:55.044Z,1.30
2022-09-20T12:58:32.346Z,0.83
2022-09-20T13:01:05.283Z,1.10
2022-09-20T13:03:48.524Z,0.90
2022-09-20T13:06:16.614Z,1.30
2022-09-20T13:09:00.902Z,1.43
2022-09-20T13:11:35.486Z,1.20
2022-09-20T13:14:04.812Z,1.37
2022-09-20T13:16:37.516Z,1.00
2022-09-20T13:19:10.497Z,0.93
2022-09-20T13:21:40.479Z,1.00
2022-09-20T13:24:12.246Z,0.70
2022-09-20T13:26:46.232Z,1.17
2022-09-20T13:29:40.770Z,1.00
2022-09-20T13:32:30.297Z,1.03
2022-09-20T13:35:19.575Z,0.97
2022-09-20T13:37:55.619Z,1.10
2022-09-20T13:40:44.934Z,0.93
2022-09-20T13:43:30.787Z,0.73
2022-09-20T13:46:14.342Z,1.20
2022-09-20T13:48:41.165Z,1.00
2022-09-20T13:51:24.609Z,0.90
2022-09-20T13:53:51.416Z,0.80
2022-09-20T13:56:26.021Z,0.97
2022-09-20T13:58:53.496Z,1.17
2022-09-20T14:01:32.774Z,1.00
2022-09-20T14:04:08.710Z,1.13
2022-09-20T14:06:36.293Z,1.20
2022-09-20T14:09:10.682Z,1.00
2022-09-20T14:11:39.044Z,0.87
2022-09-20T14:14:08.146Z,1.30
2022-09-20T14:16:39.564Z,1.10
2022-09-20T14:19:10.208Z,0.87
2022-09-20T14:21:38.269Z,0.93
2022-09-20T14:24:28.671Z,0.90
2022-09-20T14:27:06.614Z,0.73
2022-09-20T14:29:49.751Z,0.83
2022-09-20T14:32:19.333Z,1.00
2022-09-20T14:35:12.321Z,0.80
2022-09-20T14:37:43.621Z,0.90
2022-09-20T14:40:44.494Z,0.60
2022-09-20T14:43:32.384Z,0.70
2022-09-20T14:46:10.325Z,0.73
2022-09-20T14:48:42.810Z,0.77
2022-09-20T14:51:16.483Z,1.10
2022-09-20T14:53:44.641Z,0.60
2022-09-20T14:56:15.304Z,0.63
2022-09-20T14:59:03.578Z,0.70
2022-09-20T15:01:30.629Z,0.80
2022-09-20T15:03:58.576Z,0.70
2022-09-20T15:06:25.998Z,0.77
2022-09-20T15:08:52.907Z,0.53
2022-09-20T15:11:20.523Z,1.07
2022-09-20T15:13:47.360Z,1.17
2022-09-20T15:16:17.584Z,0.90
2022-09-20T15:18:44.872Z,0.77
2022-09-20T15:21:12.188Z,0.90
2022-09-20T15:23:39.952Z,0.80
2022-09-20T15:26:08.846Z,1.20
2022-09-20T15:28:38.803Z,0.77
2022-09-20T15:31:05.842Z,0.97
2022-09-20T15:33:33.065Z,1.40
2022-09-20T15:36:02.728Z,0.90
2022-09-20T15:38:29.704Z,0.70
2022-09-20T15:40:56.634Z,0.80
2022-09-20T15:43:27.128Z,0.90
2022-09-20T15:46:00.679Z,0.60
2022-09-20T15:48:30.316Z,0.90
2022-09-20T15:51:02.672Z,0.83
2022-09-20T15:53:31.993Z,0.90
2022-09-20T15:56:01.336Z,1.00
2022-09-20T15:58:35.455Z,1.00
2022-09-20T16:01:05.627Z,1.37
2022-09-20T16:03:32.925Z,1.53
2022-09-20T16:06:04.314Z,1.60
2022-09-20T16:08:36.466Z,1.00
2022-09-20T16:11:04.993Z,0.90
2022-09-20T16:13:32.152Z,0.97
2022-09-20T16:16:01.098Z,0.97
2022-09-20T16:18:47.207Z,0.90
2022-09-20T16:21:16.927Z,0.97
2022-09-20T16:23:49.311Z,0.90
2022-09-20T16:26:16.255Z,1.40
2022-09-20T16:28:47.279Z,1.30
2022-09-20T16:31:36.723Z,1.90
2022-09-20T16:34:06.841Z,2.30
2022-09-20T16:36:33.931Z,2.07
2022-09-20T16:39:01.238Z,2.20
2022-09-20T16:41:29.006Z,2.20
2022-09-20T16:43:56.071Z,2.60
2022-09-20T16:46:27.446Z,2.37
2022-09-20T16:48:56.692Z,2.93
2022-09-20T16:51:26.148Z,1.37
2022-09-20T16:53:54.891Z,0.90
2022-09-20T16:56:26.848Z,1.40
2022-09-20T16:58:54.410Z,1.47
2022-09-20T17:01:22.098Z,0.70
2022-09-20T17:03:49.332Z,0.90
2022-09-20T17:06:16.931Z,1.80
2022-09-20T17:08:46.762Z,1.47
2022-09-20T17:11:20.481Z,1.23
2022-09-20T17:13:47.962Z,0.90
2022-09-20T17:16:16.903Z,1.40
2022-09-20T17:18:44.120Z,1.27
2022-09-20T17:21:15.882Z,1.40
2022-09-20T17:23:48.793Z,1.40
2022-09-20T17:26:23.028Z,1.30
2022-09-20T17:28:51.742Z,1.80
2022-09-20T17:31:21.344Z,1.50
2022-09-20T17:33:48.369Z,1.20
2022-09-20T17:36:19.033Z,1.50
2022-09-20T17:38:47.510Z,2.07
2022-09-20T17:41:18.776Z,1.67
2022-09-20T17:43:46.798Z,1.70
2022-09-20T17:46:26.124Z,1.70
2022-09-20T17:48:58.349Z,1.93
2022-09-20T17:51:30.630Z,2.00
2022-09-20T17:53:58.159Z,1.60
2022-09-20T17:56:28.673Z,2.00
2022-09-20T17:58:57.073Z,2.07
2022-09-20T18:01:26.155Z,2.03
2022-09-20T18:03:54.251Z,2.23
2022-09-20T18:06:35.584Z,1.70
2022-09-20T18:09:07.836Z,1.80
2022-09-20T18:11:37.091Z,2.10
2022-09-20T18:14:06.033Z,1.80
2022-09-20T18:16:35.072Z,1.77
2022-09-20T18:19:02.191Z,2.00
2022-09-20T18:21:31.243Z,1.80
2022-09-20T18:23:59.073Z,2.00
2022-09-20T18:26:30.074Z,2.17
2022-09-20T18:29:01.457Z,5.00
2022-09-20T18:31:37.224Z,2.67
2022-09-20T18:34:06.713Z,1.90
2022-09-20T18:36:36.117Z,1.77
2022-09-20T18:39:03.564Z,2.27
2022-09-20T18:41:33.241Z,1.73
2022-09-20T18:44:01.674Z,1.73
2022-09-20T18:46:30.728Z,1.43
2022-09-20T18:49:01.423Z,1.70
2022-09-20T18:51:33.047Z,1.77
2022-09-20T18:54:03.519Z,1.80
2022-09-20T18:56:32.824Z,1.80
2022-09-20T18:59:06.638Z,1.73
2022-09-20T19:01:55.137Z,1.63
2022-09-20T19:04:28.241Z,2.07
2022-09-20T19:07:07.849Z,1.73
2022-09-20T19:09:46.276Z,2.17
2022-09-20T19:12:22.002Z,2.63
2022-09-20T19:15:22.641Z,2.90
2022-09-20T19:18:06.344Z,2.47
2022-09-20T19:21:04.500Z,2.60
2022-09-20T19:23:37.053Z,4.37
2022-09-20T19:26:07.854Z,3.43
2022-09-20T19:28:35.159Z,4.00
2022-09-20T19:31:02.885Z,3.30
2022-09-20T19:33:30.111Z,2.70
2022-09-20T19:35:59.113Z,2.40
2022-09-20T19:38:57.977Z,1.97
2022-09-20T19:41:47.314Z,2.00
2022-09-20T19:44:32.491Z,1.90
2022-09-20T19:47:25.187Z,2.00
2022-09-20T19:49:59.888Z,2.30
2022-09-20T19:52:26.901Z,6.93
2022-09-20T19:54:54.044Z,6.80
2022-09-20T19:57:35.421Z,3.83
2022-09-20T20:00:06.181Z,2.53
2022-09-20T20:02:35.979Z,2.50
2022-09-20T20:05:03.832Z,2.67
2022-09-20T20:07:46.811Z,2.30
2022-09-20T20:10:26.771Z,2.27
2022-09-20T20:13:30.082Z,2.80
2022-09-20T20:16:04.651Z,3.20
2022-09-20T20:18:58.777Z,2.40
2022-09-20T20:21:52.569Z,2.83
2022-09-20T20:24:47.018Z,2.50
2022-09-20T20:27:13.910Z,2.53
2022-09-20T20:29:41.217Z,2.87
2022-09-20T20:32:08.085Z,2.70
2022-09-20T20:34:37.427Z,2.53
2022-09-20T20:37:08.459Z,2.57
2022-09-20T20:39:35.320Z,2.60
2022-09-20T20:42:03.370Z,2.83
2022-09-20T20:44:31.115Z,2.60
2022-09-20T20:46:58.529Z,2.93
2022-09-20T20:49:25.249Z,2.70
2022-09-20T20:51:52.028Z,2.50
2022-09-20T20:54:18.802Z,2.37
2022-09-20T20:56:45.578Z,2.60
2022-09-20T20:59:12.521Z,2.53
2022-09-20T21:01:45.121Z,2.53
2022-09-20T21:04:13.616Z,2.63
2022-09-20T21:06:41.676Z,2.90
2022-09-20T21:09:10.459Z,3.03
2022-09-20T21:11:39.364Z,3.30
2022-09-20T21:14:07.469Z,3.20
2022-09-20T21:16:36.960Z,3.57
2022-09-20T21:19:05.808Z,2.97
2022-09-20T21:21:35.237Z,3.50
2022-09-20T21:24:07.428Z,3.07
2022-09-20T21:26:35.684Z,2.93
2022-09-20T21:29:05.449Z,3.13
2022-09-20T21:31:35.200Z,2.87
2022-09-20T21:34:04.450Z,2.80
2022-09-20T21:36:31.535Z,2.40
2022-09-20T21:38:58.439Z,2.57
2022-09-20T21:41:30.641Z,2.40
2022-09-20T21:44:02.733Z,2.50
2022-09-20T21:46:32.623Z,2.47
2022-09-20T21:49:05.858Z,2.33
2022-09-20T21:51:33.564Z,2.70
2022-09-20T21:54:01.823Z,3.40
2022-09-20T21:56:34.597Z,4.20
2022-09-20T21:59:03.997Z,2.90
2022-09-20T22:01:34.862Z,3.30
2022-09-20T22:04:05.932Z,2.63
2022-09-20T22:06:38.569Z,2.47
2022-09-20T22:09:25.060Z,2.97
2022-09-20T22:11:51.958Z,3.10
2022-09-20T22:14:19.757Z,3.27
2022-09-20T22:16:48.104Z,3.93
2022-09-20T22:19:17.024Z,3.87
2022-09-20T22:21:45.829Z,3.17
2022-09-20T22:24:14.106Z,2.60
2022-09-20T22:26:43.410Z,2.77
2022-09-20T22:29:10.760Z,3.07
2022-09-20T22:31:44.911Z,2.53
2022-09-20T22:34:15.049Z,2.83
2022-09-20T22:36:42.579Z,2.40
2022-09-20T22:39:10.995Z,2.60
2022-09-20T22:41:39.369Z,2.50
2022-09-20T22:44:06.498Z,2.23
2022-09-20T22:46:34.284Z,2.30
2022-09-20T22:49:01.353Z,2.50
2022-09-20T22:51:31.345Z,2.40
2022-09-20T22:53:58.201Z,2.67
2022-09-20T22:56:30.319Z,2.57
2022-09-20T22:59:05.621Z,2.43
2022-09-20T23:01:38.380Z,2.57
2022-09-20T23:04:08.450Z,2.10
2022-09-20T23:06:50.029Z,2.80
2022-09-20T23:09:18.222Z,2.30
2022-09-20T23:11:46.038Z,2.37
2022-09-20T23:14:17.167Z,2.53
2022-09-20T23:16:44.484Z,2.70
2022-09-20T23:19:12.733Z,2.30
2022-09-20T23:21:41.619Z,2.37
2022-09-20T23:24:10.604Z,2.17
2022-09-20T23:26:38.808Z,2.27
2022-09-20T23:29:08.528Z,4.07
2022-09-20T23:31:37.041Z,3.10
2022-09-20T23:34:06.083Z,2.70
2022-09-20T23:36:35.982Z,2.20
2022-09-20T23:39:02.923Z,1.90
2022-09-20T23:41:30.049Z,2.60
2022-09-20T23:43:56.925Z,2.30
2022-09-20T23:46:25.555Z,2.57
2022-09-20T23:48:53.046Z,2.33
2022-09-20T23:51:22.665Z,2.17
2022-09-20T23:53:50.527Z,2.40
2022-09-20T23:56:17.719Z,2.20
2022-09-20T23:58:45.261Z,2.43
